sensor_id;sensor_type;location;lat;lon;timestamp;P1;durP1;ratioP1;P2;durP2;ratioP2
71462;SDS011;59266;52.608;13.260;2024-02-16T00:02:14;11.18;;;5.32;;
71462;SDS011;59266;52.608;13.260;2024-02-16T00:04:41;12.05;;;5.15;;
71462;SDS011;59266;52.608;13.260;2024-02-16T00:07:08;10.40;;;4.88;;
71462;SDS011;59266;52.608;13.260;2024-02-16T00:09:35;14.05;;;5.00;;
71462;SDS011;59266;52.608;13.260;2024-02-16T00:12:01;10.07;;;4.30;;
71462;SDS011;59266;52.608;13.260;2024-02-16T00:14:28;9.75;;;4.70;;
71462;SDS011;59266;52.608;13.260;2024-02-16T00:16:55;12.57;;;4.95;;
71462;SDS011;59266;52.608;13.260;2024-02-16T00:19:22;9.57;;;4.47;;
71462;SDS011;59266;52.608;13.260;2024-02-16T00:21:50;9.82;;;4.30;;
71462;SDS011;59266;52.608;13.260;2024-02-16T00:24:17;13.38;;;4.78;;
71462;SDS011;59266;52.608;13.260;2024-02-16T00:26:44;15.77;;;4.75;;
71462;SDS011;59266;52.608;13.260;2024-02-16T00:29:12;10.02;;;4.30;;
71462;SDS011;59266;52.608;13.260;2024-02-16T00:31:38;10.88;;;4.50;;
71462;SDS011;59266;52.608;13.260;2024-02-16T00:34:05;10.90;;;4.72;;
71462;SDS011;59266;52.608;13.260;2024-02-16T00:36:32;11.32;;;4.70;;
71462;SDS011;59266;52.608;13.260;2024-02-16T00:39:00;11.23;;;4.40;;
71462;SDS011;59266;52.608;13.260;2024-02-16T00:41:27;11.35;;;4.60;;
71462;SDS011;59266;52.608;13.260;2024-02-16T00:43:53;10.50;;;4.72;;
71462;SDS011;59266;52.608;13.260;2024-02-16T00:46:20;11.00;;;4.50;;
71462;SDS011;59266;52.608;13.260;2024-02-16T00:48:49;7.80;;;3.90;;
71462;SDS011;59266;52.608;13.260;2024-02-16T00:51:20;10.80;;;4.50;;
71462;SDS011;59266;52.608;13.260;2024-02-16T00:53:47;8.88;;;4.70;;
71462;SDS011;59266;52.608;13.260;2024-02-16T00:56:13;12.13;;;4.50;;
71462;SDS011;59266;52.608;13.260;2024-02-16T00:58:40;10.32;;;5.13;;
71462;SDS011;59266;52.608;13.260;2024-02-16T01:01:09;10.93;;;4.88;;
71462;SDS011;59266;52.608;13.260;2024-02-16T01:03:38;10.93;;;5.03;;
71462;SDS011;59266;52.608;13.260;2024-02-16T01:06:05;12.07;;;5.38;;
71462;SDS011;59266;52.608;13.260;2024-02-16T01:08:32;10.75;;;5.55;;
71462;SDS011;59266;52.608;13.260;2024-02-16T01:10:59;11.90;;;5.10;;
71462;SDS011;59266;52.608;13.260;2024-02-16T01:13:26;15.27;;;6.07;;
71462;SDS011;59266;52.608;13.260;2024-02-16T01:15:53;10.90;;;5.40;;
71462;SDS011;59266;52.608;13.260;2024-02-16T01:18:20;11.93;;;5.43;;
71462;SDS011;59266;52.608;13.260;2024-02-16T01:20:47;12.90;;;5.30;;
71462;SDS011;59266;52.608;13.260;2024-02-16T01:23:14;14.13;;;5.55;;
71462;SDS011;59266;52.608;13.260;2024-02-16T01:25:40;11.05;;;5.65;;
71462;SDS011;59266;52.608;13.260;2024-02-16T01:28:07;14.48;;;6.03;;
71462;SDS011;59266;52.608;13.260;2024-02-16T01:30:33;17.10;;;6.90;;
71462;SDS011;59266;52.608;13.260;2024-02-16T01:33:00;12.02;;;5.88;;
71462;SDS011;59266;52.608;13.260;2024-02-16T01:35:27;13.75;;;6.68;;
71462;SDS011;59266;52.608;13.260;2024-02-16T01:37:54;14.63;;;5.47;;
71462;SDS011;59266;52.608;13.260;2024-02-16T01:40:20;13.45;;;6.18;;
71462;SDS011;59266;52.608;13.260;2024-02-16T01:42:47;15.85;;;6.65;;
71462;SDS011;59266;52.608;13.260;2024-02-16T01:45:14;14.55;;;6.65;;
71462;SDS011;59266;52.608;13.260;2024-02-16T01:47:41;17.00;;;6.82;;
71462;SDS011;59266;52.608;13.260;2024-02-16T01:50:10;15.43;;;6.68;;
71462;SDS011;59266;52.608;13.260;2024-02-16T01:52:37;15.60;;;7.05;;
71462;SDS011;59266;52.608;13.260;2024-02-16T01:55:04;17.13;;;8.32;;
71462;SDS011;59266;52.608;13.260;2024-02-16T01:57:35;15.10;;;7.93;;
71462;SDS011;59266;52.608;13.260;2024-02-16T02:00:05;20.40;;;8.50;;
71462;SDS011;59266;52.608;13.260;2024-02-16T02:02:34;20.88;;;8.10;;
71462;SDS011;59266;52.608;13.260;2024-02-16T02:05:02;20.10;;;8.55;;
71462;SDS011;59266;52.608;13.260;2024-02-16T02:07:30;19.88;;;8.88;;
71462;SDS011;59266;52.608;13.260;2024-02-16T02:09:57;21.30;;;9.77;;
71462;SDS011;59266;52.608;13.260;2024-02-16T02:12:23;20.45;;;9.32;;
71462;SDS011;59266;52.608;13.260;2024-02-16T02:14:50;22.63;;;10.27;;
71462;SDS011;59266;52.608;13.260;2024-02-16T02:17:17;18.90;;;9.60;;
71462;SDS011;59266;52.608;13.260;2024-02-16T02:19:45;20.50;;;10.57;;
71462;SDS011;59266;52.608;13.260;2024-02-16T02:22:19;21.50;;;10.48;;
71462;SDS011;59266;52.608;13.260;2024-02-16T02:24:46;24.23;;;10.80;;
71462;SDS011;59266;52.608;13.260;2024-02-16T02:27:13;22.48;;;11.20;;
71462;SDS011;59266;52.608;13.260;2024-02-16T02:29:41;21.27;;;10.07;;
71462;SDS011;59266;52.608;13.260;2024-02-16T02:32:08;23.25;;;10.82;;
71462;SDS011;59266;52.608;13.260;2024-02-16T02:34:35;22.90;;;10.88;;
71462;SDS011;59266;52.608;13.260;2024-02-16T02:37:05;23.55;;;10.93;;
71462;SDS011;59266;52.608;13.260;2024-02-16T02:39:32;25.70;;;10.68;;
71462;SDS011;59266;52.608;13.260;2024-02-16T02:41:59;24.02;;;11.35;;
71462;SDS011;59266;52.608;13.260;2024-02-16T02:44:26;23.38;;;11.48;;
71462;SDS011;59266;52.608;13.260;2024-02-16T02:46:52;28.38;;;12.30;;
71462;SDS011;59266;52.608;13.260;2024-02-16T02:49:19;24.13;;;11.45;;
71462;SDS011;59266;52.608;13.260;2024-02-16T02:51:49;23.70;;;12.10;;
71462;SDS011;59266;52.608;13.260;2024-02-16T02:54:15;22.90;;;11.38;;
71462;SDS011;59266;52.608;13.260;2024-02-16T02:56:42;22.02;;;11.05;;
71462;SDS011;59266;52.608;13.260;2024-02-16T02:59:09;26.45;;;11.55;;
71462;SDS011;59266;52.608;13.260;2024-02-16T03:01:36;20.92;;;10.88;;
71462;SDS011;59266;52.608;13.260;2024-02-16T03:04:04;23.50;;;12.48;;
71462;SDS011;59266;52.608;13.260;2024-02-16T03:06:31;24.08;;;11.32;;
71462;SDS011;59266;52.608;13.260;2024-02-16T03:08:58;22.63;;;11.02;;
71462;SDS011;59266;52.608;13.260;2024-02-16T03:11:24;23.13;;;11.57;;
71462;SDS011;59266;52.608;13.260;2024-02-16T03:13:52;22.58;;;11.77;;
71462;SDS011;59266;52.608;13.260;2024-02-16T03:16:18;22.95;;;10.40;;
71462;SDS011;59266;52.608;13.260;2024-02-16T03:18:45;25.70;;;11.45;;
71462;SDS011;59266;52.608;13.260;2024-02-16T03:21:13;25.42;;;11.88;;
71462;SDS011;59266;52.608;13.260;2024-02-16T03:23:42;27.05;;;11.73;;
71462;SDS011;59266;52.608;13.260;2024-02-16T03:26:16;24.70;;;12.35;;
71462;SDS011;59266;52.608;13.260;2024-02-16T03:28:44;29.08;;;12.27;;
71462;SDS011;59266;52.608;13.260;2024-02-16T03:31:20;22.60;;;11.25;;
71462;SDS011;59266;52.608;13.260;2024-02-16T03:33:49;24.73;;;11.85;;
71462;SDS011;59266;52.608;13.260;2024-02-16T03:36:16;25.17;;;12.80;;
71462;SDS011;59266;52.608;13.260;2024-02-16T03:38:44;24.10;;;11.52;;
71462;SDS011;59266;52.608;13.260;2024-02-16T03:41:13;23.35;;;11.23;;
71462;SDS011;59266;52.608;13.260;2024-02-16T03:43:40;25.20;;;12.00;;
71462;SDS011;59266;52.608;13.260;2024-02-16T03:46:07;26.92;;;12.00;;
71462;SDS011;59266;52.608;13.260;2024-02-16T03:48:34;25.00;;;12.00;;
71462;SDS011;59266;52.608;13.260;2024-02-16T03:51:01;26.92;;;12.77;;
71462;SDS011;59266;52.608;13.260;2024-02-16T03:53:29;24.85;;;11.75;;
71462;SDS011;59266;52.608;13.260;2024-02-16T03:55:56;24.13;;;12.05;;
71462;SDS011;59266;52.608;13.260;2024-02-16T03:58:22;23.65;;;12.30;;
71462;SDS011;59266;52.608;13.260;2024-02-16T04:00:50;24.73;;;12.27;;
71462;SDS011;59266;52.608;13.260;2024-02-16T04:03:16;23.70;;;11.77;;
71462;SDS011;59266;52.608;13.260;2024-02-16T04:05:43;23.08;;;11.82;;
71462;SDS011;59266;52.608;13.260;2024-02-16T04:08:10;28.15;;;12.23;;
71462;SDS011;59266;52.608;13.260;2024-02-16T04:10:36;24.17;;;11.45;;
71462;SDS011;59266;52.608;13.260;2024-02-16T04:13:03;24.52;;;12.52;;
71462;SDS011;59266;52.608;13.260;2024-02-16T04:15:30;23.10;;;11.95;;
71462;SDS011;59266;52.608;13.260;2024-02-16T04:17:57;26.33;;;11.57;;
71462;SDS011;59266;52.608;13.260;2024-02-16T04:20:24;25.13;;;12.55;;
71462;SDS011;59266;52.608;13.260;2024-02-16T04:22:50;27.88;;;12.27;;
71462;SDS011;59266;52.608;13.260;2024-02-16T04:25:17;21.85;;;11.85;;
71462;SDS011;59266;52.608;13.260;2024-02-16T04:27:44;26.95;;;11.98;;
71462;SDS011;59266;52.608;13.260;2024-02-16T04:30:10;27.60;;;12.13;;
71462;SDS011;59266;52.608;13.260;2024-02-16T04:32:37;22.88;;;12.52;;
71462;SDS011;59266;52.608;13.260;2024-02-16T04:35:04;26.67;;;12.30;;
71462;SDS011;59266;52.608;13.260;2024-02-16T04:37:31;26.63;;;12.93;;
71462;SDS011;59266;52.608;13.260;2024-02-16T04:39:58;22.50;;;11.57;;
71462;SDS011;59266;52.608;13.260;2024-02-16T04:42:24;26.50;;;12.60;;
71462;SDS011;59266;52.608;13.260;2024-02-16T04:44:51;25.17;;;13.18;;
71462;SDS011;59266;52.608;13.260;2024-02-16T04:47:18;25.85;;;12.82;;
71462;SDS011;59266;52.608;13.260;2024-02-16T04:49:46;25.65;;;13.35;;
71462;SDS011;59266;52.608;13.260;2024-02-16T04:52:12;25.38;;;11.80;;
71462;SDS011;59266;52.608;13.260;2024-02-16T04:54:39;26.08;;;12.20;;
71462;SDS011;59266;52.608;13.260;2024-02-16T04:57:07;28.25;;;12.70;;
71462;SDS011;59266;52.608;13.260;2024-02-16T04:59:33;27.17;;;12.18;;
71462;SDS011;59266;52.608;13.260;2024-02-16T05:02:01;26.85;;;13.32;;
71462;SDS011;59266;52.608;13.260;2024-02-16T05:04:27;25.83;;;12.52;;
71462;SDS011;59266;52.608;13.260;2024-02-16T05:06:54;25.55;;;11.98;;
71462;SDS011;59266;52.608;13.260;2024-02-16T05:09:24;26.50;;;12.57;;
71462;SDS011;59266;52.608;13.260;2024-02-16T05:11:52;25.05;;;12.50;;
71462;SDS011;59266;52.608;13.260;2024-02-16T05:14:19;24.13;;;12.55;;
71462;SDS011;59266;52.608;13.260;2024-02-16T05:16:46;26.25;;;12.55;;
71462;SDS011;59266;52.608;13.260;2024-02-16T05:19:13;25.58;;;11.77;;
71462;SDS011;59266;52.608;13.260;2024-02-16T05:21:40;25.38;;;12.88;;
71462;SDS011;59266;52.608;13.260;2024-02-16T05:24:07;23.20;;;11.82;;
71462;SDS011;59266;52.608;13.260;2024-02-16T05:26:34;23.63;;;11.27;;
71462;SDS011;59266;52.608;13.260;2024-02-16T05:29:00;26.27;;;11.80;;
71462;SDS011;59266;52.608;13.260;2024-02-16T05:31:28;27.90;;;11.27;;
71462;SDS011;59266;52.608;13.260;2024-02-16T05:33:54;22.73;;;11.13;;
71462;SDS011;59266;52.608;13.260;2024-02-16T05:36:22;22.52;;;10.98;;
71462;SDS011;59266;52.608;13.260;2024-02-16T05:41:22;24.00;;;10.65;;
71462;SDS011;59266;52.608;13.260;2024-02-16T05:43:49;26.73;;;12.35;;
71462;SDS011;59266;52.608;13.260;2024-02-16T05:46:15;20.95;;;10.98;;
71462;SDS011;59266;52.608;13.260;2024-02-16T05:48:43;22.95;;;10.60;;
71462;SDS011;59266;52.608;13.260;2024-02-16T05:51:11;22.55;;;10.90;;
71462;SDS011;59266;52.608;13.260;2024-02-16T05:53:41;24.33;;;11.45;;
71462;SDS011;59266;52.608;13.260;2024-02-16T05:56:08;23.00;;;10.38;;
71462;SDS011;59266;52.608;13.260;2024-02-16T05:58:36;22.25;;;11.60;;
71462;SDS011;59266;52.608;13.260;2024-02-16T06:01:03;23.70;;;11.05;;
71462;SDS011;59266;52.608;13.260;2024-02-16T06:03:30;24.08;;;11.85;;
71462;SDS011;59266;52.608;13.260;2024-02-16T06:05:57;26.70;;;11.10;;
71462;SDS011;59266;52.608;13.260;2024-02-16T06:08:23;20.63;;;10.00;;
71462;SDS011;59266;52.608;13.260;2024-02-16T06:10:53;25.52;;;10.85;;
71462;SDS011;59266;52.608;13.260;2024-02-16T06:13:23;19.90;;;10.00;;
71462;SDS011;59266;52.608;13.260;2024-02-16T06:15:52;22.00;;;9.65;;
71462;SDS011;59266;52.608;13.260;2024-02-16T06:18:18;22.80;;;11.07;;
71462;SDS011;59266;52.608;13.260;2024-02-16T06:20:45;19.48;;;9.25;;
71462;SDS011;59266;52.608;13.260;2024-02-16T06:23:12;20.55;;;10.07;;
71462;SDS011;59266;52.608;13.260;2024-02-16T06:25:39;26.17;;;11.02;;
71462;SDS011;59266;52.608;13.260;2024-02-16T06:28:05;25.35;;;9.32;;
71462;SDS011;59266;52.608;13.260;2024-02-16T06:30:32;22.52;;;10.75;;
71462;SDS011;59266;52.608;13.260;2024-02-16T06:32:59;20.95;;;9.05;;
71462;SDS011;59266;52.608;13.260;2024-02-16T06:35:26;22.70;;;10.20;;
71462;SDS011;59266;52.608;13.260;2024-02-16T06:37:53;21.08;;;9.82;;
71462;SDS011;59266;52.608;13.260;2024-02-16T06:40:20;21.30;;;9.63;;
71462;SDS011;59266;52.608;13.260;2024-02-16T06:42:47;20.83;;;9.82;;
71462;SDS011;59266;52.608;13.260;2024-02-16T06:45:14;20.13;;;9.23;;
71462;SDS011;59266;52.608;13.260;2024-02-16T06:47:40;20.40;;;10.20;;
71462;SDS011;59266;52.608;13.260;2024-02-16T06:50:07;21.25;;;9.32;;
71462;SDS011;59266;52.608;13.260;2024-02-16T06:52:34;19.98;;;9.88;;
71462;SDS011;59266;52.608;13.260;2024-02-16T06:55:01;20.95;;;9.75;;
71462;SDS011;59266;52.608;13.260;2024-02-16T06:57:27;21.05;;;9.30;;
71462;SDS011;59266;52.608;13.260;2024-02-16T06:59:55;19.88;;;9.73;;
71462;SDS011;59266;52.608;13.260;2024-02-16T07:02:24;19.02;;;9.38;;
71462;SDS011;59266;52.608;13.260;2024-02-16T07:04:51;20.60;;;9.20;;
71462;SDS011;59266;52.608;13.260;2024-02-16T07:07:18;19.88;;;8.82;;
71462;SDS011;59266;52.608;13.260;2024-02-16T07:09:45;18.67;;;9.18;;
71462;SDS011;59266;52.608;13.260;2024-02-16T07:12:12;19.38;;;8.52;;
71462;SDS011;59266;52.608;13.260;2024-02-16T07:14:39;19.33;;;9.07;;
71462;SDS011;59266;52.608;13.260;2024-02-16T07:17:06;15.75;;;8.13;;
71462;SDS011;59266;52.608;13.260;2024-02-16T07:19:36;20.08;;;8.88;;
71462;SDS011;59266;52.608;13.260;2024-02-16T07:22:04;18.23;;;8.48;;
71462;SDS011;59266;52.608;13.260;2024-02-16T07:24:32;18.02;;;8.48;;
71462;SDS011;59266;52.608;13.260;2024-02-16T07:27:00;19.65;;;8.00;;
71462;SDS011;59266;52.608;13.260;2024-02-16T07:29:28;16.48;;;8.48;;
71462;SDS011;59266;52.608;13.260;2024-02-16T07:31:55;18.05;;;8.27;;
71462;SDS011;59266;52.608;13.260;2024-02-16T07:34:22;15.77;;;7.57;;
71462;SDS011;59266;52.608;13.260;2024-02-16T07:36:49;15.35;;;8.18;;
71462;SDS011;59266;52.608;13.260;2024-02-16T07:39:16;16.40;;;7.57;;
71462;SDS011;59266;52.608;13.260;2024-02-16T07:41:43;18.25;;;7.60;;
71462;SDS011;59266;52.608;13.260;2024-02-16T07:44:09;15.45;;;7.13;;
71462;SDS011;59266;52.608;13.260;2024-02-16T07:46:42;14.02;;;7.10;;
71462;SDS011;59266;52.608;13.260;2024-02-16T07:49:08;16.40;;;7.43;;
71462;SDS011;59266;52.608;13.260;2024-02-16T07:51:38;24.17;;;7.00;;
71462;SDS011;59266;52.608;13.260;2024-02-16T07:54:08;15.60;;;7.32;;
71462;SDS011;59266;52.608;13.260;2024-02-16T07:56:36;13.52;;;6.15;;
71462;SDS011;59266;52.608;13.260;2024-02-16T07:59:02;12.93;;;6.28;;
71462;SDS011;59266;52.608;13.260;2024-02-16T08:01:29;12.90;;;6.53;;
71462;SDS011;59266;52.608;13.260;2024-02-16T08:03:55;13.23;;;5.28;;
71462;SDS011;59266;52.608;13.260;2024-02-16T08:06:25;11.98;;;5.70;;
71462;SDS011;59266;52.608;13.260;2024-02-16T08:08:54;14.00;;;5.90;;
71462;SDS011;59266;52.608;13.260;2024-02-16T08:11:20;14.35;;;6.05;;
71462;SDS011;59266;52.608;13.260;2024-02-16T08:13:48;10.57;;;5.70;;
71462;SDS011;59266;52.608;13.260;2024-02-16T08:16:14;14.05;;;5.80;;
71462;SDS011;59266;52.608;13.260;2024-02-16T08:18:43;12.30;;;6.10;;
71462;SDS011;59266;52.608;13.260;2024-02-16T08:21:10;11.82;;;6.05;;
71462;SDS011;59266;52.608;13.260;2024-02-16T08:23:37;11.35;;;5.75;;
71462;SDS011;59266;52.608;13.260;2024-02-16T08:26:04;12.07;;;6.00;;
71462;SDS011;59266;52.608;13.260;2024-02-16T08:28:30;10.55;;;5.13;;
71462;SDS011;59266;52.608;13.260;2024-02-16T08:30:57;12.88;;;5.85;;
71462;SDS011;59266;52.608;13.260;2024-02-16T08:33:23;10.55;;;5.32;;
71462;SDS011;59266;52.608;13.260;2024-02-16T08:35:51;13.93;;;5.60;;
71462;SDS011;59266;52.608;13.260;2024-02-16T08:38:17;10.57;;;5.05;;
71462;SDS011;59266;52.608;13.260;2024-02-16T08:40:44;10.68;;;5.07;;
71462;SDS011;59266;52.608;13.260;2024-02-16T08:43:11;11.85;;;5.85;;
71462;SDS011;59266;52.608;13.260;2024-02-16T08:45:37;12.68;;;5.10;;
71462;SDS011;59266;52.608;13.260;2024-02-16T08:48:04;10.20;;;5.15;;
71462;SDS011;59266;52.608;13.260;2024-02-16T08:50:31;11.32;;;5.00;;
71462;SDS011;59266;52.608;13.260;2024-02-16T08:52:58;11.70;;;5.43;;
71462;SDS011;59266;52.608;13.260;2024-02-16T08:55:24;11.02;;;4.93;;
71462;SDS011;59266;52.608;13.260;2024-02-16T08:57:51;11.27;;;5.18;;
71462;SDS011;59266;52.608;13.260;2024-02-16T09:00:19;12.40;;;4.63;;
71462;SDS011;59266;52.608;13.260;2024-02-16T09:02:46;10.38;;;4.63;;
71462;SDS011;59266;52.608;13.260;2024-02-16T09:05:13;12.30;;;5.75;;
71462;SDS011;59266;52.608;13.260;2024-02-16T09:07:40;10.75;;;4.70;;
71462;SDS011;59266;52.608;13.260;2024-02-16T09:10:07;12.10;;;4.55;;
71462;SDS011;59266;52.608;13.260;2024-02-16T09:12:34;10.82;;;5.25;;
71462;SDS011;59266;52.608;13.260;2024-02-16T09:15:01;10.38;;;5.03;;
71462;SDS011;59266;52.608;13.260;2024-02-16T09:17:27;10.45;;;4.45;;
71462;SDS011;59266;52.608;13.260;2024-02-16T09:19:54;8.48;;;4.00;;
71462;SDS011;59266;52.608;13.260;2024-02-16T09:22:20;8.60;;;4.20;;
71462;SDS011;59266;52.608;13.260;2024-02-16T09:25:02;9.75;;;4.28;;
71462;SDS011;59266;52.608;13.260;2024-02-16T09:27:29;8.85;;;4.13;;
71462;SDS011;59266;52.608;13.260;2024-02-16T09:29:56;10.82;;;3.90;;
71462;SDS011;59266;52.608;13.260;2024-02-16T09:32:22;8.30;;;3.85;;
71462;SDS011;59266;52.608;13.260;2024-02-16T09:34:49;8.23;;;3.60;;
71462;SDS011;59266;52.608;13.260;2024-02-16T09:37:17;9.68;;;3.63;;
71462;SDS011;59266;52.608;13.260;2024-02-16T09:39:44;11.15;;;4.20;;
71462;SDS011;59266;52.608;13.260;2024-02-16T09:42:11;8.43;;;3.58;;
71462;SDS011;59266;52.608;13.260;2024-02-16T09:44:41;8.20;;;3.78;;
71462;SDS011;59266;52.608;13.260;2024-02-16T09:47:09;10.23;;;3.70;;
71462;SDS011;59266;52.608;13.260;2024-02-16T09:49:39;7.32;;;3.17;;
71462;SDS011;59266;52.608;13.260;2024-02-16T09:52:08;8.35;;;3.40;;
71462;SDS011;59266;52.608;13.260;2024-02-16T09:54:40;7.65;;;3.22;;
71462;SDS011;59266;52.608;13.260;2024-02-16T09:57:07;8.40;;;3.33;;
71462;SDS011;59266;52.608;13.260;2024-02-16T09:59:34;9.05;;;3.10;;
71462;SDS011;59266;52.608;13.260;2024-02-16T10:02:02;9.32;;;3.15;;
71462;SDS011;59266;52.608;13.260;2024-02-16T10:04:29;7.63;;;2.70;;
71462;SDS011;59266;52.608;13.260;2024-02-16T10:07:02;7.55;;;3.17;;
71462;SDS011;59266;52.608;13.260;2024-02-16T10:09:30;6.65;;;2.75;;
71462;SDS011;59266;52.608;13.260;2024-02-16T10:11:57;7.20;;;3.00;;
71462;SDS011;59266;52.608;13.260;2024-02-16T10:14:24;8.65;;;3.38;;
71462;SDS011;59266;52.608;13.260;2024-02-16T10:17:01;7.35;;;3.00;;
71462;SDS011;59266;52.608;13.260;2024-02-16T10:19:29;8.98;;;3.58;;
71462;SDS011;59266;52.608;13.260;2024-02-16T10:22:09;6.95;;;3.00;;
71462;SDS011;59266;52.608;13.260;2024-02-16T10:24:38;6.28;;;2.72;;
71462;SDS011;59266;52.608;13.260;2024-02-16T10:27:06;7.90;;;3.30;;
71462;SDS011;59266;52.608;13.260;2024-02-16T10:29:44;8.27;;;2.90;;
71462;SDS011;59266;52.608;13.260;2024-02-16T10:32:13;8.43;;;3.25;;
71462;SDS011;59266;52.608;13.260;2024-02-16T10:34:40;6.78;;;2.70;;
71462;SDS011;59266;52.608;13.260;2024-02-16T10:37:08;6.88;;;2.70;;
71462;SDS011;59266;52.608;13.260;2024-02-16T10:39:35;8.40;;;3.25;;
71462;SDS011;59266;52.608;13.260;2024-02-16T10:42:05;9.38;;;2.72;;
71462;SDS011;59266;52.608;13.260;2024-02-16T10:44:33;6.55;;;2.70;;
71462;SDS011;59266;52.608;13.260;2024-02-16T10:47:01;8.50;;;3.00;;
71462;SDS011;59266;52.608;13.260;2024-02-16T10:49:28;7.72;;;2.90;;
71462;SDS011;59266;52.608;13.260;2024-02-16T10:51:56;7.80;;;2.78;;
71462;SDS011;59266;52.608;13.260;2024-02-16T10:54:26;7.22;;;3.00;;
71462;SDS011;59266;52.608;13.260;2024-02-16T10:56:55;7.85;;;3.00;;
71462;SDS011;59266;52.608;13.260;2024-02-16T10:59:21;8.00;;;3.45;;
71462;SDS011;59266;52.608;13.260;2024-02-16T11:01:48;7.32;;;3.03;;
71462;SDS011;59266;52.608;13.260;2024-02-16T11:04:35;6.38;;;2.63;;
71462;SDS011;59266;52.608;13.260;2024-02-16T11:07:10;7.28;;;3.25;;
71462;SDS011;59266;52.608;13.260;2024-02-16T11:09:46;7.07;;;2.95;;
71462;SDS011;59266;52.608;13.260;2024-02-16T11:12:14;7.78;;;3.10;;
71462;SDS011;59266;52.608;13.260;2024-02-16T11:14:43;7.38;;;2.90;;
71462;SDS011;59266;52.608;13.260;2024-02-16T11:17:15;7.20;;;3.05;;
71462;SDS011;59266;52.608;13.260;2024-02-16T11:19:46;7.45;;;2.83;;
71462;SDS011;59266;52.608;13.260;2024-02-16T11:22:17;7.40;;;3.17;;
71462;SDS011;59266;52.608;13.260;2024-02-16T11:24:46;6.43;;;2.78;;
71462;SDS011;59266;52.608;13.260;2024-02-16T11:27:13;7.90;;;2.90;;
71462;SDS011;59266;52.608;13.260;2024-02-16T11:29:49;7.53;;;3.15;;
71462;SDS011;59266;52.608;13.260;2024-02-16T11:32:18;7.80;;;2.90;;
71462;SDS011;59266;52.608;13.260;2024-02-16T11:34:45;7.47;;;2.97;;
71462;SDS011;59266;52.608;13.260;2024-02-16T11:37:13;7.57;;;3.30;;
71462;SDS011;59266;52.608;13.260;2024-02-16T11:39:41;11.40;;;3.03;;
71462;SDS011;59266;52.608;13.260;2024-02-16T11:42:12;8.13;;;3.40;;
71462;SDS011;59266;52.608;13.260;2024-02-16T11:44:41;8.43;;;3.40;;
71462;SDS011;59266;52.608;13.260;2024-02-16T11:47:20;7.70;;;3.65;;
71462;SDS011;59266;52.608;13.260;2024-02-16T11:50:02;8.70;;;3.20;;
71462;SDS011;59266;52.608;13.260;2024-02-16T11:52:32;8.63;;;3.25;;
71462;SDS011;59266;52.608;13.260;2024-02-16T11:55:01;7.40;;;3.38;;
71462;SDS011;59266;52.608;13.260;2024-02-16T11:57:31;7.30;;;3.10;;
71462;SDS011;59266;52.608;13.260;2024-02-16T11:59:58;7.97;;;3.38;;
71462;SDS011;59266;52.608;13.260;2024-02-16T12:02:25;7.80;;;3.33;;
71462;SDS011;59266;52.608;13.260;2024-02-16T12:04:58;6.95;;;3.10;;
71462;SDS011;59266;52.608;13.260;2024-02-16T12:07:29;9.88;;;3.22;;
71462;SDS011;59266;52.608;13.260;2024-02-16T12:10:00;7.22;;;3.20;;
71462;SDS011;59266;52.608;13.260;2024-02-16T12:12:31;8.55;;;3.17;;
71462;SDS011;59266;52.608;13.260;2024-02-16T12:14:58;6.97;;;3.22;;
71462;SDS011;59266;52.608;13.260;2024-02-16T12:17:25;8.00;;;2.92;;
71462;SDS011;59266;52.608;13.260;2024-02-16T12:19:52;9.40;;;3.13;;
71462;SDS011;59266;52.608;13.260;2024-02-16T12:22:22;9.45;;;3.38;;
71462;SDS011;59266;52.608;13.260;2024-02-16T12:24:50;6.80;;;2.65;;
71462;SDS011;59266;52.608;13.260;2024-02-16T12:27:17;6.75;;;2.67;;
71462;SDS011;59266;52.608;13.260;2024-02-16T12:29:44;7.20;;;2.88;;
71462;SDS011;59266;52.608;13.260;2024-02-16T12:32:11;8.02;;;2.97;;
71462;SDS011;59266;52.608;13.260;2024-02-16T12:34:44;7.40;;;2.95;;
71462;SDS011;59266;52.608;13.260;2024-02-16T12:37:11;7.00;;;2.70;;
71462;SDS011;59266;52.608;13.260;2024-02-16T12:39:37;9.90;;;2.50;;
71462;SDS011;59266;52.608;13.260;2024-02-16T12:42:04;7.45;;;2.78;;
71462;SDS011;59266;52.608;13.260;2024-02-16T12:44:31;10.00;;;3.13;;
71462;SDS011;59266;52.608;13.260;2024-02-16T12:46:58;7.88;;;2.50;;
71462;SDS011;59266;52.608;13.260;2024-02-16T12:49:24;7.40;;;2.58;;
71462;SDS011;59266;52.608;13.260;2024-02-16T12:51:53;6.05;;;2.50;;
71462;SDS011;59266;52.608;13.260;2024-02-16T12:54:20;6.90;;;2.33;;
71462;SDS011;59266;52.608;13.260;2024-02-16T12:56:49;6.18;;;2.40;;
71462;SDS011;59266;52.608;13.260;2024-02-16T12:59:19;5.85;;;2.33;;
71462;SDS011;59266;52.608;13.260;2024-02-16T13:01:46;9.63;;;2.40;;
71462;SDS011;59266;52.608;13.260;2024-02-16T13:04:13;6.50;;;2.53;;
71462;SDS011;59266;52.608;13.260;2024-02-16T13:06:48;7.68;;;2.50;;
71462;SDS011;59266;52.608;13.260;2024-02-16T13:09:15;5.40;;;2.20;;
71462;SDS011;59266;52.608;13.260;2024-02-16T13:11:42;7.22;;;2.35;;
71462;SDS011;59266;52.608;13.260;2024-02-16T13:14:10;5.55;;;2.33;;
71462;SDS011;59266;52.608;13.260;2024-02-16T13:16:37;6.70;;;2.08;;
71462;SDS011;59266;52.608;13.260;2024-02-16T13:19:03;6.50;;;2.30;;
71462;SDS011;59266;52.608;13.260;2024-02-16T13:21:30;6.18;;;2.00;;
71462;SDS011;59266;52.608;13.260;2024-02-16T13:23:57;5.78;;;2.13;;
71462;SDS011;59266;52.608;13.260;2024-02-16T13:26:24;7.45;;;2.35;;
71462;SDS011;59266;52.608;13.260;2024-02-16T13:28:51;5.97;;;2.00;;
71462;SDS011;59266;52.608;13.260;2024-02-16T13:31:20;7.03;;;2.35;;
71462;SDS011;59266;52.608;13.260;2024-02-16T13:33:49;6.25;;;2.05;;
71462;SDS011;59266;52.608;13.260;2024-02-16T13:36:17;6.63;;;2.08;;
71462;SDS011;59266;52.608;13.260;2024-02-16T13:38:43;10.18;;;2.60;;
71462;SDS011;59266;52.608;13.260;2024-02-16T13:41:10;6.18;;;2.20;;
71462;SDS011;59266;52.608;13.260;2024-02-16T13:43:37;4.88;;;1.85;;
71462;SDS011;59266;52.608;13.260;2024-02-16T13:46:05;6.10;;;2.35;;
71462;SDS011;59266;52.608;13.260;2024-02-16T13:48:32;5.65;;;2.25;;
71462;SDS011;59266;52.608;13.260;2024-02-16T13:50:59;5.20;;;2.38;;
71462;SDS011;59266;52.608;13.260;2024-02-16T13:53:26;5.47;;;1.98;;
71462;SDS011;59266;52.608;13.260;2024-02-16T13:55:55;6.15;;;2.08;;
71462;SDS011;59266;52.608;13.260;2024-02-16T13:58:22;6.63;;;2.30;;
71462;SDS011;59266;52.608;13.260;2024-02-16T14:00:48;6.65;;;2.00;;
71462;SDS011;59266;52.608;13.260;2024-02-16T14:03:16;7.60;;;2.50;;
71462;SDS011;59266;52.608;13.260;2024-02-16T14:05:44;6.18;;;2.17;;
71462;SDS011;59266;52.608;13.260;2024-02-16T14:08:12;6.82;;;1.85;;
71462;SDS011;59266;52.608;13.260;2024-02-16T14:10:41;6.88;;;2.53;;
71462;SDS011;59266;52.608;13.260;2024-02-16T14:13:07;5.68;;;2.15;;
71462;SDS011;59266;52.608;13.260;2024-02-16T14:15:35;6.82;;;2.30;;
71462;SDS011;59266;52.608;13.260;2024-02-16T14:18:02;6.45;;;2.20;;
71462;SDS011;59266;52.608;13.260;2024-02-16T14:20:39;7.53;;;2.10;;
71462;SDS011;59266;52.608;13.260;2024-02-16T14:23:06;6.28;;;2.03;;
71462;SDS011;59266;52.608;13.260;2024-02-16T14:25:35;7.53;;;2.20;;
71462;SDS011;59266;52.608;13.260;2024-02-16T14:28:04;7.63;;;2.08;;
71462;SDS011;59266;52.608;13.260;2024-02-16T14:30:31;7.60;;;2.15;;